sensor_id;sensor_type;location;lat;lon;timestamp;noise_LAeq;noise_LA_min;noise_LA_max;noise_LA01;noise_LA95
73342;Laerm;61578;52.002;5.468;2024-01-10T00:00:10;41.25;39.07;49.75;;
73342;Laerm;61578;52.002;5.468;2024-01-10T00:00:43;41.36;39.21;49.70;;
73342;Laerm;61578;52.002;5.468;2024-01-10T00:01:14;41.51;39.15;49.31;;
73342;Laerm;61578;52.002;5.468;2024-01-10T00:01:45;41.48;38.89;47.59;;
73342;Laerm;61578;52.002;5.468;2024-01-10T00:02:16;41.32;39.23;49.46;;
73342;Laerm;61578;52.002;5.468;2024-01-10T00:02:46;41.26;38.97;47.51;;
73342;Laerm;61578;52.002;5.468;2024-01-10T00:03:17;41.60;39.21;49.75;;
73342;Laerm;61578;52.002;5.468;2024-01-10T00:03:48;41.46;38.81;49.80;;
73342;Laerm;61578;52.002;5.468;2024-01-10T00:04:19;41.40;39.00;47.43;;
73342;Laerm;61578;52.002;5.468;2024-01-10T00:04:50;41.40;39.15;47.52;;
73342;Laerm;61578;52.002;5.468;2024-01-10T00:05:21;41.57;39.39;49.53;;
73342;Laerm;61578;52.002;5.468;2024-01-10T00:05:52;41.26;38.77;47.41;;
73342;Laerm;61578;52.002;5.468;2024-01-10T00:06:24;41.16;38.94;47.48;;
73342;Laerm;61578;52.002;5.468;2024-01-10T00:06:55;41.38;38.78;47.41;;
73342;Laerm;61578;52.002;5.468;2024-01-10T00:07:25;41.16;38.88;47.18;;
73342;Laerm;61578;52.002;5.468;2024-01-10T00:07:56;41.31;38.92;48.95;;
73342;Laerm;61578;52.002;5.468;2024-01-10T00:08:27;41.14;38.81;48.93;;
73342;Laerm;61578;52.002;5.468;2024-01-10T00:08:58;41.30;38.72;47.30;;
73342;Laerm;61578;52.002;5.468;2024-01-10T00:09:28;41.69;39.37;47.10;;
73342;Laerm;61578;52.002;5.468;2024-01-10T00:09:59;41.57;39.45;49.30;;
73342;Laerm;61578;52.002;5.468;2024-01-10T00:10:32;41.37;39.01;47.28;;
73342;Laerm;61578;52.002;5.468;2024-01-10T00:11:03;41.22;38.84;47.13;;
73342;Laerm;61578;52.002;5.468;2024-01-10T00:11:34;41.16;39.08;48.01;;
73342;Laerm;61578;52.002;5.468;2024-01-10T00:12:05;41.30;39.02;47.36;;
73342;Laerm;61578;52.002;5.468;2024-01-10T00:12:36;41.48;39.43;47.30;;
73342;Laerm;61578;52.002;5.468;2024-01-10T00:13:07;41.38;38.75;48.22;;
73342;Laerm;61578;52.002;5.468;2024-01-10T00:13:38;41.31;39.10;47.43;;
73342;Laerm;61578;52.002;5.468;2024-01-10T00:14:09;41.31;39.15;47.35;;
73342;Laerm;61578;52.002;5.468;2024-01-10T00:14:40;41.32;39.22;47.37;;
73342;Laerm;61578;52.002;5.468;2024-01-10T00:15:11;41.34;39.02;47.37;;
73342;Laerm;61578;52.002;5.468;2024-01-10T00:15:41;41.33;38.44;48.68;;
73342;Laerm;61578;52.002;5.468;2024-01-10T00:16:12;41.45;39.16;47.52;;
73342;Laerm;61578;52.002;5.468;2024-01-10T00:16:46;41.31;39.19;47.35;;
73342;Laerm;61578;52.002;5.468;2024-01-10T00:17:17;41.32;39.21;47.76;;
73342;Laerm;61578;52.002;5.468;2024-01-10T00:17:48;41.45;39.14;47.41;;
73342;Laerm;61578;52.002;5.468;2024-01-10T00:18:18;41.50;39.04;47.52;;
73342;Laerm;61578;52.002;5.468;2024-01-10T00:18:49;41.49;39.17;47.59;;
73342;Laerm;61578;52.002;5.468;2024-01-10T00:19:20;41.49;39.38;49.78;;
73342;Laerm;61578;52.002;5.468;2024-01-10T00:19:50;41.16;38.65;47.47;;
73342;Laerm;61578;52.002;5.468;2024-01-10T00:20:21;41.35;38.87;47.55;;
73342;Laerm;61578;52.002;5.468;2024-01-10T00:20:52;41.46;39.30;47.42;;
73342;Laerm;61578;52.002;5.468;2024-01-10T00:21:24;41.43;39.12;47.80;;
73342;Laerm;61578;52.002;5.468;2024-01-10T00:21:55;41.30;39.00;47.96;;
73342;Laerm;61578;52.002;5.468;2024-01-10T00:22:26;41.46;39.23;47.83;;
73342;Laerm;61578;52.002;5.468;2024-01-10T00:22:57;41.40;39.06;47.51;;
73342;Laerm;61578;52.002;5.468;2024-01-10T00:23:28;41.64;38.66;49.52;;
73342;Laerm;61578;52.002;5.468;2024-01-10T00:23:59;41.76;39.46;47.62;;
73342;Laerm;61578;52.002;5.468;2024-01-10T00:24:29;41.18;39.02;47.84;;
73342;Laerm;61578;52.002;5.468;2024-01-10T00:25:00;41.20;39.02;47.54;;
73342;Laerm;61578;52.002;5.468;2024-01-10T00:25:31;41.32;39.02;49.47;;
73342;Laerm;61578;52.002;5.468;2024-01-10T00:26:02;41.18;38.99;49.51;;
73342;Laerm;61578;52.002;5.468;2024-01-10T00:26:33;41.15;38.76;47.29;;
73342;Laerm;61578;52.002;5.468;2024-01-10T00:27:04;41.16;39.02;49.20;;
73342;Laerm;61578;52.002;5.468;2024-01-10T00:27:35;41.33;38.96;49.53;;
73342;Laerm;61578;52.002;5.468;2024-01-10T00:28:06;41.22;38.97;47.35;;
73342;Laerm;61578;52.002;5.468;2024-01-10T00:28:37;41.24;38.94;48.41;;
73342;Laerm;61578;52.002;5.468;2024-01-10T00:29:08;41.57;39.18;48.00;;
73342;Laerm;61578;52.002;5.468;2024-01-10T00:29:38;41.50;39.19;47.94;;
73342;Laerm;61578;52.002;5.468;2024-01-10T00:30:09;41.46;38.66;47.46;;
73342;Laerm;61578;52.002;5.468;2024-01-10T00:30:40;41.58;39.31;47.34;;
73342;Laerm;61578;52.002;5.468;2024-01-10T00:31:12;41.42;39.14;49.53;;
73342;Laerm;61578;52.002;5.468;2024-01-10T00:31:42;41.23;38.98;49.55;;
73342;Laerm;61578;52.002;5.468;2024-01-10T00:32:13;41.10;39.12;49.54;;
73342;Laerm;61578;52.002;5.468;2024-01-10T00:32:44;41.15;38.92;48.58;;
73342;Laerm;61578;52.002;5.468;2024-01-10T00:33:16;41.46;39.57;47.54;;
73342;Laerm;61578;52.002;5.468;2024-01-10T00:33:46;41.36;39.17;47.66;;
73342;Laerm;61578;52.002;5.468;2024-01-10T00:34:18;41.52;39.09;47.52;;
73342;Laerm;61578;52.002;5.468;2024-01-10T00:34:48;41.14;38.91;47.47;;
73342;Laerm;61578;52.002;5.468;2024-01-10T00:35:19;41.62;39.20;49.41;;
73342;Laerm;61578;52.002;5.468;2024-01-10T00:35:50;41.47;39.17;47.67;;
73342;Laerm;61578;52.002;5.468;2024-01-10T00:36:21;41.39;39.32;47.41;;
73342;Laerm;61578;52.002;5.468;2024-01-10T00:36:51;41.37;39.36;48.45;;
73342;Laerm;61578;52.002;5.468;2024-01-10T00:37:22;41.41;39.13;48.83;;
73342;Laerm;61578;52.002;5.468;2024-01-10T00:37:53;41.19;38.91;47.33;;
73342;Laerm;61578;52.002;5.468;2024-01-10T00:38:24;41.17;38.63;48.03;;
73342;Laerm;61578;52.002;5.468;2024-01-10T00:38:55;41.56;38.91;47.35;;
73342;Laerm;61578;52.002;5.468;2024-01-10T00:39:25;41.40;39.10;49.34;;
73342;Laerm;61578;52.002;5.468;2024-01-10T00:39:56;41.21;39.13;47.58;;
73342;Laerm;61578;52.002;5.468;2024-01-10T00:40:27;41.35;39.34;47.37;;
73342;Laerm;61578;52.002;5.468;2024-01-10T00:40:58;41.49;39.21;47.59;;
73342;Laerm;61578;52.002;5.468;2024-01-10T00:41:29;41.20;39.17;47.43;;
73342;Laerm;61578;52.002;5.468;2024-01-10T00:41:59;40.97;39.14;49.86;;
73342;Laerm;61578;52.002;5.468;2024-01-10T00:42:30;41.58;39.36;49.43;;
73342;Laerm;61578;52.002;5.468;2024-01-10T00:43:02;41.36;39.12;47.45;;
73342;Laerm;61578;52.002;5.468;2024-01-10T00:43:33;41.85;39.42;49.54;;
73342;Laerm;61578;52.002;5.468;2024-01-10T00:44:04;41.48;39.58;47.40;;
73342;Laerm;61578;52.002;5.468;2024-01-10T00:44:35;41.40;39.37;47.35;;
73342;Laerm;61578;52.002;5.468;2024-01-10T00:45:07;41.30;39.06;47.29;;
73342;Laerm;61578;52.002;5.468;2024-01-10T00:45:38;41.63;39.42;47.30;;
73342;Laerm;61578;52.002;5.468;2024-01-10T00:46:08;41.51;39.02;49.45;;
73342;Laerm;61578;52.002;5.468;2024-01-10T00:46:39;41.64;38.70;47.47;;
73342;Laerm;61578;52.002;5.468;2024-01-10T00:47:11;41.18;39.02;47.35;;
73342;Laerm;61578;52.002;5.468;2024-01-10T00:47:42;41.20;39.32;49.51;;
73342;Laerm;61578;52.002;5.468;2024-01-10T00:48:13;41.31;39.31;47.32;;
73342;Laerm;61578;52.002;5.468;2024-01-10T00:48:44;41.64;39.53;47.58;;
73342;Laerm;61578;52.002;5.468;2024-01-10T00:49:14;41.51;39.68;49.67;;
73342;Laerm;61578;52.002;5.468;2024-01-10T00:49:45;41.45;39.37;47.48;;
73342;Laerm;61578;52.002;5.468;2024-01-10T00:50:16;41.57;39.28;47.57;;
73342;Laerm;61578;52.002;5.468;2024-01-10T00:50:47;41.26;38.98;49.53;;
73342;Laerm;61578;52.002;5.468;2024-01-10T00:51:18;41.09;38.97;47.32;;
73342;Laerm;61578;52.002;5.468;2024-01-10T00:51:49;41.37;39.47;47.51;;
73342;Laerm;61578;52.002;5.468;2024-01-10T00:52:19;41.41;39.39;49.19;;
73342;Laerm;61578;52.002;5.468;2024-01-10T00:52:50;41.23;38.67;49.23;;
73342;Laerm;61578;52.002;5.468;2024-01-10T00:53:21;41.18;39.23;49.10;;
73342;Laerm;61578;52.002;5.468;2024-01-10T00:53:52;41.41;39.25;47.20;;
73342;Laerm;61578;52.002;5.468;2024-01-10T00:54:22;41.41;39.33;49.36;;
73342;Laerm;61578;52.002;5.468;2024-01-10T00:54:53;41.52;39.42;47.13;;
73342;Laerm;61578;52.002;5.468;2024-01-10T00:55:24;41.40;39.29;47.19;;
73342;Laerm;61578;52.002;5.468;2024-01-10T00:55:55;41.49;39.02;47.35;;
73342;Laerm;61578;52.002;5.468;2024-01-10T00:56:25;41.50;39.36;47.44;;
73342;Laerm;61578;52.002;5.468;2024-01-10T00:56:56;41.47;39.35;47.17;;
73342;Laerm;61578;52.002;5.468;2024-01-10T00:57:27;41.34;39.14;47.18;;
73342;Laerm;61578;52.002;5.468;2024-01-10T00:57:57;41.41;39.48;47.35;;
73342;Laerm;61578;52.002;5.468;2024-01-10T00:58:28;41.47;39.33;47.21;;
73342;Laerm;61578;52.002;5.468;2024-01-10T00:58:59;41.64;39.26;47.32;;
73342;Laerm;61578;52.002;5.468;2024-01-10T00:59:30;41.79;39.71;47.36;;
73342;Laerm;61578;52.002;5.468;2024-01-10T01:00:00;41.54;39.42;49.00;;
73342;Laerm;61578;52.002;5.468;2024-01-10T01:00:32;41.72;39.41;47.36;;
73342;Laerm;61578;52.002;5.468;2024-01-10T01:01:03;41.68;39.52;49.10;;
73342;Laerm;61578;52.002;5.468;2024-01-10T01:01:34;41.43;39.17;47.35;;
73342;Laerm;61578;52.002;5.468;2024-01-10T01:02:05;41.51;39.49;48.56;;
73342;Laerm;61578;52.002;5.468;2024-01-10T01:02:37;41.41;39.32;47.36;;
73342;Laerm;61578;52.002;5.468;2024-01-10T01:03:10;41.55;39.31;47.53;;
73342;Laerm;61578;52.002;5.468;2024-01-10T01:03:40;41.59;39.37;47.42;;
73342;Laerm;61578;52.002;5.468;2024-01-10T01:04:11;41.54;39.33;49.32;;
73342;Laerm;61578;52.002;5.468;2024-01-10T01:04:42;42.00;39.59;49.40;;
73342;Laerm;61578;52.002;5.468;2024-01-10T01:05:13;41.76;39.29;47.56;;
73342;Laerm;61578;52.002;5.468;2024-01-10T01:05:43;41.67;39.54;48.33;;
73342;Laerm;61578;52.002;5.468;2024-01-10T01:06:14;42.37;39.96;48.61;;
73342;Laerm;61578;52.002;5.468;2024-01-10T01:06:45;41.59;39.26;49.63;;
73342;Laerm;61578;52.002;5.468;2024-01-10T01:07:16;41.68;39.58;47.78;;
73342;Laerm;61578;52.002;5.468;2024-01-10T01:07:47;41.80;39.37;49.46;;
73342;Laerm;61578;52.002;5.468;2024-01-10T01:08:18;41.67;39.50;48.95;;
73342;Laerm;61578;52.002;5.468;2024-01-10T01:08:48;41.88;39.65;47.88;;
73342;Laerm;61578;52.002;5.468;2024-01-10T01:09:19;42.03;39.73;48.03;;
73342;Laerm;61578;52.002;5.468;2024-01-10T01:09:50;41.70;39.25;47.81;;
73342;Laerm;61578;52.002;5.468;2024-01-10T01:10:21;42.05;39.47;47.76;;
73342;Laerm;61578;52.002;5.468;2024-01-10T01:10:51;41.53;39.32;47.58;;
73342;Laerm;61578;52.002;5.468;2024-01-10T01:11:22;41.61;39.36;47.62;;
73342;Laerm;61578;52.002;5.468;2024-01-10T01:11:53;41.62;39.45;48.87;;
73342;Laerm;61578;52.002;5.468;2024-01-10T01:12:24;41.97;39.48;48.43;;
73342;Laerm;61578;52.002;5.468;2024-01-10T01:12:54;42.26;39.74;48.04;;
73342;Laerm;61578;52.002;5.468;2024-01-10T01:13:25;42.75;39.99;48.40;;
73342;Laerm;61578;52.002;5.468;2024-01-10T01:13:56;42.09;39.64;48.95;;
73342;Laerm;61578;52.002;5.468;2024-01-10T01:14:27;42.47;39.96;49.94;;
73342;Laerm;61578;52.002;5.468;2024-01-10T01:14:57;41.82;39.82;47.69;;
73342;Laerm;61578;52.002;5.468;2024-01-10T01:15:28;41.86;39.52;49.71;;
73342;Laerm;61578;52.002;5.468;2024-01-10T01:15:59;41.99;39.59;49.48;;
73342;Laerm;61578;52.002;5.468;2024-01-10T01:16:30;41.67;39.53;47.80;;
73342;Laerm;61578;52.002;5.468;2024-01-10T01:17:01;41.54;39.29;49.94;;
73342;Laerm;61578;52.002;5.468;2024-01-10T01:17:31;41.75;39.12;50.02;;
73342;Laerm;61578;52.002;5.468;2024-01-10T01:18:02;41.69;39.24;47.78;;
73342;Laerm;61578;52.002;5.468;2024-01-10T01:18:34;41.72;39.45;49.84;;
73342;Laerm;61578;52.002;5.468;2024-01-10T01:19:05;41.43;39.33;47.86;;
73342;Laerm;61578;52.002;5.468;2024-01-10T01:19:35;41.53;39.57;47.91;;
73342;Laerm;61578;52.002;5.468;2024-01-10T01:20:07;41.76;39.20;48.01;;
73342;Laerm;61578;52.002;5.468;2024-01-10T01:20:38;41.52;39.45;48.06;;
73342;Laerm;61578;52.002;5.468;2024-01-10T01:21:09;41.85;39.53;48.70;;
73342;Laerm;61578;52.002;5.468;2024-01-10T01:21:40;41.99;39.72;47.97;;
73342;Laerm;61578;52.002;5.468;2024-01-10T01:22:10;41.53;39.40;47.86;;
73342;Laerm;61578;52.002;5.468;2024-01-10T01:22:41;41.45;39.02;47.93;;
73342;Laerm;61578;52.002;5.468;2024-01-10T01:23:12;41.53;39.20;47.79;;
73342;Laerm;61578;52.002;5.468;2024-01-10T01:23:43;41.71;39.31;48.21;;
73342;Laerm;61578;52.002;5.468;2024-01-10T01:24:14;42.10;39.67;48.31;;
73342;Laerm;61578;52.002;5.468;2024-01-10T01:24:45;41.94;39.57;50.07;;
73342;Laerm;61578;52.002;5.468;2024-01-10T01:25:16;41.68;39.47;49.98;;
73342;Laerm;61578;52.002;5.468;2024-01-10T01:25:46;42.01;39.73;47.99;;
73342;Laerm;61578;52.002;5.468;2024-01-10T01:26:17;41.94;39.58;48.19;;
73342;Laerm;61578;52.002;5.468;2024-01-10T01:26:48;42.00;39.80;49.47;;
73342;Laerm;61578;52.002;5.468;2024-01-10T01:27:18;41.63;39.28;49.74;;
73342;Laerm;61578;52.002;5.468;2024-01-10T01:27:49;41.82;38.87;48.30;;
73342;Laerm;61578;52.002;5.468;2024-01-10T01:28:20;42.09;39.82;49.22;;
73342;Laerm;61578;52.002;5.468;2024-01-10T01:28:51;41.78;39.63;47.92;;
73342;Laerm;61578;52.002;5.468;2024-01-10T01:29:21;42.01;39.74;49.79;;
73342;Laerm;61578;52.002;5.468;2024-01-10T01:29:53;41.69;39.82;48.52;;
73342;Laerm;61578;52.002;5.468;2024-01-10T01:30:23;41.78;39.46;49.16;;
73342;Laerm;61578;52.002;5.468;2024-01-10T01:30:55;41.86;39.77;49.60;;
73342;Laerm;61578;52.002;5.468;2024-01-10T01:31:26;41.73;39.32;48.06;;
73342;Laerm;61578;52.002;5.468;2024-01-10T01:31:57;41.66;39.47;49.85;;
73342;Laerm;61578;52.002;5.468;2024-01-10T01:32:27;41.87;39.07;50.29;;
73342;Laerm;61578;52.002;5.468;2024-01-10T01:32:58;42.14;39.85;49.12;;
73342;Laerm;61578;52.002;5.468;2024-01-10T01:33:29;42.07;39.06;48.77;;
73342;Laerm;61578;52.002;5.468;2024-01-10T01:34:00;42.00;39.68;49.88;;
73342;Laerm;61578;52.002;5.468;2024-01-10T01:34:30;41.97;39.52;47.85;;
73342;Laerm;61578;52.002;5.468;2024-01-10T01:35:01;41.70;39.34;47.72;;
73342;Laerm;61578;52.002;5.468;2024-01-10T01:35:33;41.71;39.83;48.21;;
73342;Laerm;61578;52.002;5.468;2024-01-10T01:36:04;42.06;39.70;49.86;;
73342;Laerm;61578;52.002;5.468;2024-01-10T01:36:35;41.93;39.27;48.11;;
73342;Laerm;61578;52.002;5.468;2024-01-10T01:37:05;42.04;39.82;48.01;;
73342;Laerm;61578;52.002;5.468;2024-01-10T01:37:36;42.03;39.59;47.86;;
73342;Laerm;61578;52.002;5.468;2024-01-10T01:38:07;41.81;39.49;48.58;;
73342;Laerm;61578;52.002;5.468;2024-01-10T01:38:38;41.66;38.82;49.84;;
73342;Laerm;61578;52.002;5.468;2024-01-10T01:39:08;42.50;39.99;48.38;;
73342;Laerm;61578;52.002;5.468;2024-01-10T01:39:39;41.93;39.68;48.00;;
73342;Laerm;61578;52.002;5.468;2024-01-10T01:40:10;41.97;39.48;47.94;;
73342;Laerm;61578;52.002;5.468;2024-01-10T01:40:41;41.73;39.65;49.83;;
73342;Laerm;61578;52.002;5.468;2024-01-10T01:41:12;41.91;39.12;49.99;;
73342;Laerm;61578;52.002;5.468;2024-01-10T01:41:45;41.64;39.47;50.05;;
73342;Laerm;61578;52.002;5.468;2024-01-10T01:42:16;41.75;39.07;47.90;;
73342;Laerm;61578;52.002;5.468;2024-01-10T01:42:46;41.66;39.62;47.81;;
73342;Laerm;61578;52.002;5.468;2024-01-10T01:43:24;41.77;39.06;50.04;;
73342;Laerm;61578;52.002;5.468;2024-01-10T01:43:55;41.87;39.71;48.06;;
73342;Laerm;61578;52.002;5.468;2024-01-10T01:44:26;41.59;39.42;48.06;;
73342;Laerm;61578;52.002;5.468;2024-01-10T01:44:56;41.63;39.26;47.90;;
73342;Laerm;61578;52.002;5.468;2024-01-10T01:45:27;41.83;39.27;49.17;;
73342;Laerm;61578;52.002;5.468;2024-01-10T01:45:58;41.92;39.42;47.87;;
73342;Laerm;61578;52.002;5.468;2024-01-10T01:46:31;41.88;39.64;48.46;;
73342;Laerm;61578;52.002;5.468;2024-01-10T01:47:03;42.14;39.98;50.01;;
73342;Laerm;61578;52.002;5.468;2024-01-10T01:47:34;41.75;39.69;47.78;;
73342;Laerm;61578;52.002;5.468;2024-01-10T01:48:05;41.91;39.55;47.97;;
73342;Laerm;61578;52.002;5.468;2024-01-10T01:48:36;42.00;39.71;49.61;;
73342;Laerm;61578;52.002;5.468;2024-01-10T01:49:08;41.84;39.58;49.92;;
73342;Laerm;61578;52.002;5.468;2024-01-10T01:49:42;41.96;39.89;48.27;;
73342;Laerm;61578;52.002;5.468;2024-01-10T01:50:13;42.09;39.85;48.08;;
73342;Laerm;61578;52.002;5.468;2024-01-10T01:50:47;42.48;39.76;49.60;;
73342;Laerm;61578;52.002;5.468;2024-01-10T01:51:23;41.87;39.38;50.08;;
73342;Laerm;61578;52.002;5.468;2024-01-10T01:51:55;42.01;39.27;49.16;;
73342;Laerm;61578;52.002;5.468;2024-01-10T01:52:30;41.85;39.61;49.98;;
73342;Laerm;61578;52.002;5.468;2024-01-10T01:53:01;41.85;39.54;48.02;;
73342;Laerm;61578;52.002;5.468;2024-01-10T01:53:36;41.98;39.69;49.37;;
73342;Laerm;61578;52.002;5.468;2024-01-10T01:54:09;41.96;39.88;49.00;;
73342;Laerm;61578;52.002;5.468;2024-01-10T01:54:40;41.95;39.85;47.80;;
73342;Laerm;61578;52.002;5.468;2024-01-10T01:55:11;41.96;39.93;48.53;;
73342;Laerm;61578;52.002;5.468;2024-01-10T01:55:45;41.89;39.44;47.96;;
73342;Laerm;61578;52.002;5.468;2024-01-10T01:56:17;41.82;39.56;50.05;;
73342;Laerm;61578;52.002;5.468;2024-01-10T01:56:49;41.63;39.37;47.93;;
73342;Laerm;61578;52.002;5.468;2024-01-10T01:57:20;41.64;39.06;49.28;;
73342;Laerm;61578;52.002;5.468;2024-01-10T01:57:51;41.99;39.86;49.00;;
73342;Laerm;61578;52.002;5.468;2024-01-10T01:58:23;41.98;39.81;47.96;;
73342;Laerm;61578;52.002;5.468;2024-01-10T01:58:55;41.75;39.33;47.84;;
73342;Laerm;61578;52.002;5.468;2024-01-10T01:59:26;41.70;39.71;49.98;;
73342;Laerm;61578;52.002;5.468;2024-01-10T02:00:16;41.84;39.45;47.83;;
73342;Laerm;61578;52.002;5.468;2024-01-10T02:00:47;41.75;39.51;49.90;;
73342;Laerm;61578;52.002;5.468;2024-01-10T02:01:19;41.90;39.28;50.51;;
73342;Laerm;61578;52.002;5.468;2024-01-10T02:01:55;41.61;39.44;48.00;;
73342;Laerm;61578;52.002;5.468;2024-01-10T02:02:30;41.76;39.38;47.94;;
73342;Laerm;61578;52.002;5.468;2024-01-10T02:03:04;42.11;39.63;49.24;;
73342;Laerm;61578;52.002;5.468;2024-01-10T02:03:35;41.97;39.66;48.00;;
73342;Laerm;61578;52.002;5.468;2024-01-10T02:04:06;42.08;39.79;47.96;;
73342;Laerm;61578;52.002;5.468;2024-01-10T02:04:37;42.51;39.55;48.51;;
73342;Laerm;61578;52.002;5.468;2024-01-10T02:05:08;42.05;39.71;48.09;;
73342;Laerm;61578;52.002;5.468;2024-01-10T02:05:39;41.87;39.86;48.01;;
73342;Laerm;61578;52.002;5.468;2024-01-10T02:06:11;42.01;39.46;49.86;;
73342;Laerm;61578;52.002;5.468;2024-01-10T02:06:42;42.24;39.54;48.13;;
73342;Laerm;61578;52.002;5.468;2024-01-10T02:07:13;41.85;39.62;47.81;;
73342;Laerm;61578;52.002;5.468;2024-01-10T02:07:44;42.43;39.54;48.75;;
73342;Laerm;61578;52.002;5.468;2024-01-10T02:08:15;41.92;39.61;49.64;;
73342;Laerm;61578;52.002;5.468;2024-01-10T02:08:46;41.96;39.79;50.03;;
73342;Laerm;61578;52.002;5.468;2024-01-10T02:09:17;41.86;39.33;49.89;;
73342;Laerm;61578;52.002;5.468;2024-01-10T02:09:48;41.89;39.55;48.05;;
73342;Laerm;61578;52.002;5.468;2024-01-10T02:10:19;42.02;39.77;47.90;;
73342;Laerm;61578;52.002;5.468;2024-01-10T02:10:50;42.06;39.93;50.06;;
73342;Laerm;61578;52.002;5.468;2024-01-10T02:11:23;41.80;39.80;47.89;;
73342;Laerm;61578;52.002;5.468;2024-01-10T02:11:55;41.94;39.68;47.91;;
73342;Laerm;61578;52.002;5.468;2024-01-10T02:12:26;42.04;39.65;48.30;;
73342;Laerm;61578;52.002;5.468;2024-01-10T02:12:57;41.80;39.71;48.11;;
73342;Laerm;61578;52.002;5.468;2024-01-10T02:13:29;41.98;39.71;50.08;;
73342;Laerm;61578;52.002;5.468;2024-01-10T02:14:01;42.22;39.97;49.87;;
73342;Laerm;61578;52.002;5.468;2024-01-10T02:14:32;41.87;39.30;50.17;;
73342;Laerm;61578;52.002;5.468;2024-01-10T02:15:03;41.99;39.78;50.02;;
73342;Laerm;61578;52.002;5.468;2024-01-10T02:15:36;41.77;39.31;47.92;;
73342;Laerm;61578;52.002;5.468;2024-01-10T02:16:07;42.09;39.80;47.95;;
73342;Laerm;61578;52.002;5.468;2024-01-10T02:16:37;41.87;39.60;48.99;;
73342;Laerm;61578;52.002;5.468;2024-01-10T02:17:08;41.91;39.59;50.08;;
73342;Laerm;61578;52.002;5.468;2024-01-10T02:17:39;41.45;39.35;50.14;;
73342;Laerm;61578;52.002;5.468;2024-01-10T02:18:10;41.53;39.53;49.17;;
73342;Laerm;61578;52.002;5.468;2024-01-10T02:18:42;41.74;39.32;47.78;;
73342;Laerm;61578;52.002;5.468;2024-01-10T02:19:31;42.44;39.38;50.39;;
73342;Laerm;61578;52.002;5.468;2024-01-10T02:20:13;43.02;39.92;50.75;;
73342;Laerm;61578;52.002;5.468;2024-01-10T02:20:45;42.08;39.24;50.03;;
73342;Laerm;61578;52.002;5.468;2024-01-10T02:21:16;41.55;39.23;47.84;;
73342;Laerm;61578;52.002;5.468;2024-01-10T02:21:50;41.86;38.72;49.72;;
73342;Laerm;61578;52.002;5.468;2024-01-10T02:22:21;41.57;39.25;47.81;;
73342;Laerm;61578;52.002;5.468;2024-01-10T02:22:52;41.51;39.37;47.79;;
73342;Laerm;61578;52.002;5.468;2024-01-10T02:23:23;41.74;39.58;47.80;;
73342;Laerm;61578;52.002;5.468;2024-01-10T02:23:54;41.65;39.36;47.95;;
73342;Laerm;61578;52.002;5.468;2024-01-10T02:24:24;41.54;39.34;47.98;;
73342;Laerm;61578;52.002;5.468;2024-01-10T02:24:55;41.65;39.41;50.00;;
73342;Laerm;61578;52.002;5.468;2024-01-10T02:25:26;41.62;39.58;50.22;;
73342;Laerm;61578;52.002;5.468;2024-01-10T02:25:57;41.62;39.45;47.81;;
73342;Laerm;61578;52.002;5.468;2024-01-10T02:26:28;41.96;39.32;48.48;;
73342;Laerm;61578;52.002;5.468;2024-01-10T02:26:59;41.65;39.71;47.87;;
73342;Laerm;61578;52.002;5.468;2024-01-10T02:27:30;41.60;39.38;50.11;;
73342;Laerm;61578;52.002;5.468;2024-01-10T02:28:01;41.77;39.50;49.99;;
73342;Laerm;61578;52.002;5.468;2024-01-10T02:28:32;41.67;39.34;48.62;;
73342;Laerm;61578;52.002;5.468;2024-01-10T02:29:03;41.66;39.37;47.76;;
73342;Laerm;61578;52.002;5.468;2024-01-10T02:29:34;41.87;39.46;47.84;;
73342;Laerm;61578;52.002;5.468;2024-01-10T02:30:07;41.75;39.62;49.86;;
73342;Laerm;61578;52.002;5.468;2024-01-10T02:30:39;41.84;39.54;47.95;;
73342;Laerm;61578;52.002;5.468;2024-01-10T02:31:09;41.62;39.19;50.03;;
73342;Laerm;61578;52.002;5.468;2024-01-10T02:31:40;41.64;39.59;47.86;;
73342;Laerm;61578;52.002;5.468;2024-01-10T02:32:11;41.61;39.53;47.81;;
73342;Laerm;61578;52.002;5.468;2024-01-10T02:32:42;41.61;39.47;49.61;;
73342;Laerm;61578;52.002;5.468;2024-01-10T02:33:13;41.72;39.36;47.85;;
73342;Laerm;61578;52.002;5.468;2024-01-10T02:33:44;41.78;38.92;47.93;;
73342;Laerm;61578;52.002;5.468;2024-01-10T02:34:15;41.96;39.69;49.56;;
73342;Laerm;61578;52.002;5.468;2024-01-10T02:34:45;41.83;39.48;49.07;;
73342;Laerm;61578;52.002;5.468;2024-01-10T02:35:16;41.74;39.64;49.92;;
73342;Laerm;61578;52.002;5.468;2024-01-10T02:35:47;41.82;39.23;48.10;;
73342;Laerm;61578;52.002;5.468;2024-01-10T02:36:18;41.49;39.51;47.91;;
73342;Laerm;61578;52.002;5.468;2024-01-10T02:36:48;41.87;39.60;48.01;;
73342;Laerm;61578;52.002;5.468;2024-01-10T02:37:19;41.58;39.29;49.86;;
73342;Laerm;61578;52.002;5.468;2024-01-10T02:37:50;41.57;39.58;47.65;;
73342;Laerm;61578;52.002;5.468;2024-01-10T02:38:22;41.68;39.47;47.73;;
73342;Laerm;61578;52.002;5.468;2024-01-10T02:38:53;41.68;39.28;47.74;;
73342;Laerm;61578;52.002;5.468;2024-01-10T02:39:24;41.74;39.36;47.94;;
73342;Laerm;61578;52.002;5.468;2024-01-10T02:39:55;41.64;39.53;48.82;;
73342;Laerm;61578;52.002;5.468;2024-01-10T02:40:26;41.65;39.46;47.67;;
73342;Laerm;61578;52.002;5.468;2024-01-10T02:40:57;41.77;39.61;49.95;;
73342;Laerm;61578;52.002;5.468;2024-01-10T02:41:27;41.75;39.76;47.85;;
73342;Laerm;61578;52.002;5.468;2024-01-10T02:41:58;41.79;39.07;49.73;;
73342;Laerm;61578;52.002;5.468;2024-01-10T02:42:29;41.63;39.32;49.96;;
73342;Laerm;61578;52.002;5.468;2024-01-10T02:43:00;41.86;39.66;47.76;;
73342;Laerm;61578;52.002;5.468;2024-01-10T02:43:31;41.64;39.57;47.86;;
73342;Laerm;61578;52.002;5.468;2024-01-10T02:44:02;41.67;39.40;49.95;;
73342;Laerm;61578;52.002;5.468;2024-01-10T02:44:32;41.94;39.53;49.89;;
73342;Laerm;61578;52.002;5.468;2024-01-10T02:45:04;41.90;39.52;47.94;;
73342;Laerm;61578;52.002;5.468;2024-01-10T02:45:35;41.93;39.89;48.14;;
73342;Laerm;61578;52.002;5.468;2024-01-10T02:46:06;41.76;39.48;49.69;;
73342;Laerm;61578;52.002;5.468;2024-01-10T02:46:37;41.93;39.39;47.73;;
73342;Laerm;61578;52.002;5.468;2024-01-10T02:47:07;41.76;39.31;49.37;;
73342;Laerm;61578;52.002;5.468;2024-01-10T02:47:39;41.52;39.46;49.86;;
73342;Laerm;61578;52.002;5.468;2024-01-10T02:48:09;41.64;39.38;49.63;;
73342;Laerm;61578;52.002;5.468;2024-01-10T02:48:40;41.67;39.35;47.49;;
73342;Laerm;61578;52.002;5.468;2024-01-10T02:49:11;41.61;39.61;49.68;;
73342;Laerm;61578;52.002;5.468;2024-01-10T02:49:42;41.53;39.12;47.63;;
73342;Laerm;61578;52.002;5.468;2024-01-10T02:50:13;41.55;39.55;49.15;;
73342;Laerm;61578;52.002;5.468;2024-01-10T02:50:44;41.51;39.00;49.69;;
73342;Laerm;61578;52.002;5.468;2024-01-10T02:51:14;41.71;38.95;47.53;;
73342;Laerm;61578;52.002;5.468;2024-01-10T02:51:45;41.61;39.68;48.29;;
73342;Laerm;61578;52.002;5.468;2024-01-10T02:52:16;41.48;39.56;49.85;;
73342;Laerm;61578;52.002;5.468;2024-01-10T02:52:46;41.61;39.55;49.62;;
73342;Laerm;61578;52.002;5.468;2024-01-10T02:53:17;41.63;39.30;48.55;;
73342;Laerm;61578;52.002;5.468;2024-01-10T02:53:48;41.45;39.16;47.56;;
73342;Laerm;61578;52.002;5.468;2024-01-10T02:54:19;41.64;39.63;48.90;;
73342;Laerm;61578;52.002;5.468;2024-01-10T02:54:50;41.37;39.38;47.40;;